createdAt,value
2023-12-04T00:01:49.354Z,47.71
2023-12-04T00:04:15.924Z,47.65
2023-12-04T00:06:42.502Z,47.48
2023-12-04T00:09:08.943Z,47.60
2023-12-04T00:11:35.450Z,47.44
2023-12-04T00:14:01.902Z,47.65
2023-12-04T00:16:28.318Z,47.41
2023-12-04T00:18:54.893Z,47.61
2023-12-04T00:21:21.377Z,47.38
2023-12-04T00:23:47.816Z,47.69
2023-12-04T00:26:14.254Z,47.48
2023-12-04T00:28:40.686Z,47.68
2023-12-04T00:31:07.140Z,47.73
2023-12-04T00:33:33.751Z,47.35
2023-12-04T00:36:01.148Z,47.47
2023-12-04T00:38:27.574Z,47.35
2023-12-04T00:40:54.013Z,47.33
2023-12-04T00:43:20.433Z,47.34
2023-12-04T00:45:46.873Z,47.43
2023-12-04T00:48:13.400Z,47.47
2023-12-04T00:50:39.908Z,47.53
2023-12-04T00:53:06.340Z,47.45
2023-12-04T00:55:32.812Z,47.43
2023-12-04T00:57:59.283Z,47.44
2023-12-04T01:00:25.746Z,47.62
2023-12-04T01:02:52.190Z,47.59
2023-12-04T01:05:18.661Z,47.58
2023-12-04T01:07:45.090Z,47.54
2023-12-04T01:10:11.515Z,47.57
2023-12-04T01:12:37.989Z,47.50
2023-12-04T01:15:04.420Z,47.59
2023-12-04T01:17:30.887Z,47.51
2023-12-04T01:19:57.308Z,47.51
2023-12-04T01:22:23.689Z,47.59
2023-12-04T01:24:50.179Z,47.35
2023-12-04T01:27:16.696Z,47.50
2023-12-04T01:29:43.116Z,47.59
2023-12-04T01:32:09.570Z,47.64
2023-12-04T01:34:35.982Z,47.50
2023-12-04T01:37:02.399Z,47.63
2023-12-04T01:39:28.877Z,47.46
2023-12-04T01:41:55.293Z,47.55
2023-12-04T01:44:21.718Z,47.37
2023-12-04T01:46:48.175Z,47.46
2023-12-04T01:49:14.684Z,47.50
2023-12-04T01:51:41.167Z,47.54
2023-12-04T01:54:07.619Z,47.48
2023-12-04T01:56:34.045Z,47.42
2023-12-04T01:59:00.637Z,47.59
2023-12-04T02:01:27.101Z,47.67
2023-12-04T02:03:53.592Z,47.41
2023-12-04T02:06:20.075Z,47.58
2023-12-04T02:08:46.537Z,47.47
2023-12-04T02:11:13.044Z,47.53
2023-12-04T02:13:39.472Z,47.57
2023-12-04T02:16:05.931Z,47.47
2023-12-04T02:18:32.421Z,47.38
2023-12-04T02:20:58.961Z,47.22
2023-12-04T02:23:25.394Z,47.19
2023-12-04T02:25:51.824Z,47.60
2023-12-04T02:28:18.339Z,47.41
2023-12-04T02:30:44.822Z,47.59
2023-12-04T02:33:11.432Z,47.49
2023-12-04T02:35:37.968Z,47.59
2023-12-04T02:38:04.400Z,47.59
2023-12-04T02:40:30.828Z,47.46
2023-12-04T02:42:57.326Z,47.59
2023-12-04T02:45:23.748Z,47.49
2023-12-04T02:47:50.272Z,47.61
2023-12-04T02:50:16.747Z,47.62
2023-12-04T02:52:43.161Z,47.81
2023-12-04T02:55:09.666Z,47.48
2023-12-04T02:57:36.185Z,47.72
2023-12-04T03:00:02.671Z,47.57
2023-12-04T03:02:29.139Z,47.57
2023-12-04T03:04:55.565Z,47.57
2023-12-04T03:07:21.976Z,47.62
2023-12-04T03:09:49.830Z,47.51
2023-12-04T03:12:16.511Z,47.34
2023-12-04T03:14:42.950Z,47.02
2023-12-04T03:17:09.403Z,46.83
2023-12-04T03:19:35.912Z,46.43
2023-12-04T03:22:02.607Z,45.93
2023-12-04T03:24:29.146Z,45.46
2023-12-04T03:26:55.642Z,45.24
2023-12-04T03:29:22.076Z,45.08
2023-12-04T03:31:48.508Z,44.85
2023-12-04T03:34:15.030Z,44.41
2023-12-04T03:36:41.486Z,44.36
2023-12-04T03:39:07.927Z,43.85
2023-12-04T03:41:34.368Z,43.54
2023-12-04T03:44:00.787Z,43.47
2023-12-04T03:46:27.198Z,43.14
2023-12-04T03:48:53.740Z,42.96
2023-12-04T03:51:20.212Z,41.90
2023-12-04T03:53:46.660Z,42.04
2023-12-04T03:56:13.088Z,41.90
2023-12-04T03:58:39.497Z,41.43
2023-12-04T04:01:05.974Z,41.05
2023-12-04T04:03:32.498Z,41.19
2023-12-04T04:05:58.925Z,40.64
2023-12-04T04:08:25.403Z,40.85
2023-12-04T04:10:51.823Z,40.44
2023-12-04T04:13:18.306Z,40.20
2023-12-04T04:15:44.785Z,39.72
2023-12-04T04:18:11.277Z,39.76
2023-12-04T04:20:37.762Z,39.36
2023-12-04T04:23:04.211Z,39.17
2023-12-04T04:25:30.637Z,38.97
2023-12-04T04:27:57.112Z,38.72
2023-12-04T04:30:23.566Z,38.47
2023-12-04T04:32:50.022Z,38.16
2023-12-04T04:35:16.468Z,38.03
2023-12-04T04:37:45.380Z,37.72
2023-12-04T04:40:12.482Z,37.49
2023-12-04T04:42:38.957Z,36.99
2023-12-04T04:45:05.400Z,37.04
2023-12-04T04:47:31.856Z,36.79
2023-12-04T04:49:58.334Z,36.76
2023-12-04T04:52:24.799Z,36.52
2023-12-04T04:54:51.253Z,36.32
2023-12-04T04:57:17.659Z,35.80
2023-12-04T04:59:44.110Z,35.71
2023-12-04T05:02:10.581Z,35.69
2023-12-04T05:04:37.109Z,35.57
2023-12-04T05:07:03.650Z,35.55
2023-12-04T05:09:30.063Z,35.10
2023-12-04T05:11:57.966Z,32.83
2023-12-04T05:14:24.406Z,31.56
2023-12-04T05:16:50.830Z,31.19
2023-12-04T05:19:17.338Z,31.65
2023-12-04T05:21:43.861Z,31.41
2023-12-04T05:24:10.360Z,31.71
2023-12-04T05:26:36.774Z,31.59
2023-12-04T05:29:03.275Z,31.37
2023-12-04T05:31:29.737Z,31.34
2023-12-04T05:33:56.289Z,31.52
2023-12-04T05:36:22.833Z,31.15
2023-12-04T05:38:49.277Z,30.92
2023-12-04T05:41:15.696Z,30.95
2023-12-04T05:43:42.158Z,30.75
2023-12-04T05:46:08.607Z,30.63
2023-12-04T05:48:35.051Z,30.46
2023-12-04T05:51:01.541Z,30.64
2023-12-04T05:53:27.949Z,30.51
2023-12-04T05:55:54.363Z,30.43
2023-12-04T05:58:20.881Z,30.17
2023-12-04T06:00:47.385Z,30.31
2023-12-04T06:03:13.845Z,29.88
2023-12-04T06:05:40.379Z,29.80
2023-12-04T06:08:06.820Z,29.82
2023-12-04T06:10:33.238Z,29.90
2023-12-04T06:12:59.766Z,29.75
2023-12-04T06:15:26.225Z,29.64
2023-12-04T06:17:52.695Z,29.56
2023-12-04T06:20:19.164Z,29.19
2023-12-04T06:22:45.603Z,29.28
2023-12-04T06:25:12.060Z,29.18
2023-12-04T06:27:38.598Z,29.01
2023-12-04T06:30:05.032Z,28.96
2023-12-04T06:32:31.512Z,28.86
2023-12-04T06:34:57.998Z,28.63
2023-12-04T06:37:24.406Z,28.44
2023-12-04T06:39:50.840Z,28.33
2023-12-04T06:42:18.588Z,28.28
2023-12-04T06:44:45.010Z,28.31
2023-12-04T06:47:11.486Z,27.93
2023-12-04T06:49:37.945Z,27.90
2023-12-04T06:52:04.460Z,28.00
2023-12-04T06:54:30.943Z,27.66
2023-12-04T06:56:57.386Z,27.70
2023-12-04T06:59:23.818Z,27.33
2023-12-04T07:01:50.298Z,27.52
2023-12-04T07:04:16.813Z,27.27
2023-12-04T07:06:43.261Z,27.21
2023-12-04T07:09:09.723Z,27.10
2023-12-04T07:11:36.171Z,26.98
2023-12-04T07:14:02.616Z,26.88
2023-12-04T07:16:29.065Z,26.90
2023-12-04T07:18:55.557Z,26.75
2023-12-04T07:21:22.005Z,26.66
2023-12-04T07:23:48.444Z,26.51
2023-12-04T07:26:14.981Z,26.26
2023-12-04T07:28:41.401Z,26.16
2023-12-04T07:31:07.867Z,26.29
2023-12-04T07:33:34.531Z,26.06
2023-12-04T07:36:01.043Z,25.98
2023-12-04T07:38:29.335Z,25.69
2023-12-04T07:40:55.897Z,25.44
2023-12-04T07:43:22.401Z,25.77
2023-12-04T07:45:48.975Z,25.56
2023-12-04T07:48:15.508Z,25.28
2023-12-04T07:50:41.968Z,25.26
2023-12-04T07:53:08.414Z,25.09
2023-12-04T07:55:34.826Z,25.61
2023-12-04T07:58:01.296Z,25.84
2023-12-04T08:00:27.759Z,26.55
2023-12-04T08:02:54.154Z,26.16
2023-12-04T08:05:20.594Z,26.05
2023-12-04T08:07:47.003Z,25.82
2023-12-04T08:10:13.517Z,26.51
2023-12-04T08:12:40.062Z,27.00
2023-12-04T08:15:06.544Z,27.58
2023-12-04T08:17:32.995Z,28.18
2023-12-04T08:19:59.756Z,28.58
2023-12-04T08:22:26.312Z,28.81
2023-12-04T08:24:52.830Z,28.68
2023-12-04T08:27:19.318Z,29.21
2023-12-04T08:29:45.723Z,29.32
2023-12-04T08:32:12.208Z,29.24
2023-12-04T08:34:38.647Z,29.34
2023-12-04T08:37:05.213Z,29.53
2023-12-04T08:39:31.685Z,29.43
2023-12-04T08:42:01.924Z,26.44
2023-12-04T08:44:31.601Z,26.76
2023-12-04T08:46:58.398Z,26.91
2023-12-04T08:49:27.693Z,26.76
2023-12-04T08:51:59.145Z,27.21
2023-12-04T08:54:25.604Z,27.31
2023-12-04T08:56:52.509Z,27.36
2023-12-04T08:59:18.972Z,27.54
2023-12-04T09:01:45.719Z,24.25
2023-12-04T09:04:12.331Z,25.17
2023-12-04T09:09:11.208Z,24.60
2023-12-04T09:11:39.987Z,24.81
2023-12-04T09:14:06.448Z,24.55
2023-12-04T09:16:32.897Z,24.46
2023-12-04T09:18:59.419Z,24.20
2023-12-04T09:21:25.871Z,23.93
2023-12-04T09:23:52.518Z,23.68
2023-12-04T09:26:18.974Z,19.65
2023-12-04T09:28:45.388Z,19.28
2023-12-04T09:31:11.894Z,20.76
2023-12-04T09:33:38.399Z,21.56
2023-12-04T09:36:05.029Z,22.48
2023-12-04T09:38:31.508Z,22.98
2023-12-04T09:40:58.497Z,23.15
2023-12-04T09:43:25.629Z,23.32
2023-12-04T09:45:52.848Z,23.65
2023-12-04T09:48:19.475Z,23.90
2023-12-04T09:50:46.125Z,24.25
2023-12-04T09:53:12.617Z,24.34
2023-12-04T09:55:39.035Z,24.75
2023-12-04T09:58:05.498Z,25.08
2023-12-04T10:00:31.925Z,25.29
2023-12-04T10:02:58.577Z,19.12
2023-12-04T10:05:25.117Z,19.87
2023-12-04T10:07:51.590Z,20.30
2023-12-04T10:10:18.001Z,20.66
2023-12-04T10:12:44.651Z,21.06
2023-12-04T10:15:11.365Z,21.14
2023-12-04T10:17:37.941Z,21.34
2023-12-04T10:20:04.418Z,21.68
2023-12-04T10:22:30.982Z,21.72
2023-12-04T10:24:57.398Z,21.86
2023-12-04T10:27:23.875Z,22.17
2023-12-04T10:29:50.347Z,21.98
2023-12-04T10:32:16.811Z,22.26
2023-12-04T10:34:43.294Z,22.06
2023-12-04T10:37:09.696Z,22.14
2023-12-04T10:39:36.198Z,22.53
2023-12-04T10:42:02.822Z,22.36
2023-12-04T10:44:29.315Z,22.41
2023-12-04T10:46:55.775Z,22.35
2023-12-04T10:49:22.451Z,22.53
2023-12-04T10:51:48.987Z,22.83
2023-12-04T10:54:15.538Z,22.54
2023-12-04T10:56:42.056Z,22.33
2023-12-04T10:59:08.452Z,22.59
2023-12-04T11:01:34.974Z,22.74
2023-12-04T11:04:02.317Z,22.25
2023-12-04T11:06:28.784Z,22.42
2023-12-04T11:08:55.294Z,22.42
2023-12-04T11:11:21.729Z,22.72
2023-12-04T11:13:48.136Z,22.69
2023-12-04T11:16:14.670Z,22.49
2023-12-04T11:18:41.277Z,22.61
2023-12-04T11:21:08.323Z,22.38
2023-12-04T11:23:34.946Z,22.39
2023-12-04T11:26:01.452Z,22.63
2023-12-04T11:28:27.950Z,22.35
2023-12-04T11:30:54.413Z,22.24
2023-12-04T11:33:21.007Z,22.17
2023-12-04T11:35:47.478Z,22.23
2023-12-04T11:38:13.899Z,22.23
2023-12-04T11:40:40.317Z,22.14
2023-12-04T11:43:06.775Z,22.39
2023-12-04T11:45:33.458Z,22.01
2023-12-04T11:47:59.974Z,22.05
2023-12-04T11:50:26.451Z,22.36
2023-12-04T11:52:52.913Z,22.16
2023-12-04T11:55:19.367Z,22.56
2023-12-04T11:57:45.970Z,22.02
2023-12-04T12:00:12.539Z,22.35
2023-12-04T12:03:14.662Z,21.91
2023-12-04T12:05:28.679Z,21.86
2023-12-04T12:07:55.162Z,21.89
2023-12-04T12:10:21.561Z,21.93
2023-12-04T12:12:48.057Z,22.01
2023-12-04T12:15:14.520Z,19.59
2023-12-04T12:17:41.001Z,19.00
2023-12-04T12:20:07.443Z,19.41
2023-12-04T12:22:33.873Z,19.83
2023-12-04T12:25:00.341Z,20.35
2023-12-04T12:27:26.815Z,21.26
2023-12-04T12:29:53.310Z,20.37
2023-12-04T12:32:19.737Z,20.52
2023-12-04T12:34:46.325Z,21.42
2023-12-04T12:37:12.807Z,23.52
2023-12-04T12:39:39.263Z,21.76
2023-12-04T12:42:05.819Z,21.73
2023-12-04T12:44:32.304Z,22.30
2023-12-04T12:46:58.779Z,24.00
2023-12-04T12:49:32.847Z,22.60
2023-12-04T12:52:03.257Z,21.74
2023-12-04T12:54:29.805Z,21.95
2023-12-04T12:56:56.319Z,24.36
2023-12-04T12:59:22.757Z,23.41
2023-12-04T13:01:49.300Z,21.99
2023-12-04T13:04:15.907Z,22.01
2023-12-04T13:06:42.474Z,23.98
2023-12-04T13:09:09.027Z,23.95
2023-12-04T13:11:35.532Z,22.48
2023-12-04T13:14:02.035Z,22.11
2023-12-04T13:16:28.479Z,19.98
2023-12-04T13:18:54.934Z,20.95
2023-12-04T13:21:21.730Z,20.82
2023-12-04T13:23:48.217Z,20.02
2023-12-04T13:26:14.683Z,19.34
2023-12-04T13:28:44.540Z,20.47
2023-12-04T13:31:11.347Z,21.02
2023-12-04T13:33:37.840Z,20.08
2023-12-04T13:36:04.300Z,19.81
2023-12-04T13:38:35.242Z,20.91
2023-12-04T13:41:04.249Z,21.63
2023-12-04T13:43:30.707Z,20.01
2023-12-04T13:45:57.184Z,19.72
2023-12-04T13:48:23.691Z,20.48
2023-12-04T13:50:50.297Z,21.11
2023-12-04T13:53:16.741Z,21.08
2023-12-04T13:55:43.172Z,21.61
2023-12-04T13:58:09.737Z,22.37
2023-12-04T14:00:36.176Z,23.27
2023-12-04T14:03:02.741Z,22.75
2023-12-04T14:05:29.583Z,22.46
2023-12-04T14:07:56.481Z,23.62
2023-12-04T14:10:24.011Z,24.44
2023-12-04T14:12:50.497Z,23.92
2023-12-04T14:15:16.957Z,23.23
2023-12-04T14:17:43.411Z,24.66
2023-12-04T14:20:09.900Z,25.16
2023-12-04T14:22:36.421Z,25.23
2023-12-04T14:25:02.954Z,25.32
2023-12-04T14:27:29.373Z,25.80
2023-12-04T14:29:56.536Z,26.03
2023-12-04T14:32:27.278Z,26.18
2023-12-04T14:34:55.897Z,25.68
2023-12-04T14:37:23.140Z,25.42
2023-12-04T14:39:49.588Z,25.72
2023-12-04T14:42:16.049Z,25.55
2023-12-04T14:44:42.471Z,25.79
2023-12-04T14:47:08.893Z,25.86
2023-12-04T14:49:35.394Z,26.25
2023-12-04T14:52:02.021Z,26.39
2023-12-04T14:54:28.516Z,26.66
2023-12-04T14:56:54.930Z,26.53
2023-12-04T14:59:21.359Z,26.59
2023-12-04T15:01:47.889Z,26.84
2023-12-04T15:04:14.437Z,26.78
2023-12-04T15:06:40.958Z,26.80
2023-12-04T15:09:07.457Z,26.94
2023-12-04T15:11:33.958Z,27.15
2023-12-04T15:14:00.459Z,27.21
2023-12-04T15:16:26.900Z,27.23
2023-12-04T15:18:53.373Z,27.48
2023-12-04T15:21:19.862Z,27.41
2023-12-04T15:23:46.326Z,27.52
2023-12-04T15:26:12.730Z,27.69
2023-12-04T15:28:39.161Z,27.75
2023-12-04T15:31:05.590Z,27.86
2023-12-04T15:33:32.112Z,27.93
2023-12-04T15:35:58.598Z,28.05
2023-12-04T15:38:25.065Z,27.99
2023-12-04T15:40:51.471Z,28.30
2023-12-04T15:43:17.953Z,28.26
2023-12-04T15:45:44.505Z,28.06
2023-12-04T15:48:11.088Z,28.27
2023-12-04T15:50:37.602Z,28.56
2023-12-04T15:53:04.038Z,28.45
2023-12-04T15:55:30.493Z,28.50
2023-12-04T15:57:56.951Z,28.65
2023-12-04T16:00:23.437Z,28.70
2023-12-04T16:02:49.886Z,28.65
2023-12-04T16:05:16.488Z,28.91
2023-12-04T16:07:43.023Z,28.79
2023-12-04T16:10:09.479Z,28.95
2023-12-04T16:12:35.959Z,29.08
2023-12-04T16:15:02.426Z,29.29
2023-12-04T16:17:28.861Z,29.13
2023-12-04T16:19:55.432Z,29.21
2023-12-04T16:22:21.934Z,29.41
2023-12-04T16:24:48.367Z,29.33
2023-12-04T16:27:14.881Z,29.36
2023-12-04T16:29:41.303Z,29.38
2023-12-04T16:32:07.758Z,29.60
2023-12-04T16:34:34.297Z,29.57
2023-12-04T16:37:00.732Z,29.32
2023-12-04T16:39:27.177Z,29.39
2023-12-04T16:41:53.635Z,29.26
2023-12-04T16:44:20.715Z,29.33
2023-12-04T16:46:47.165Z,29.71
2023-12-04T16:49:13.698Z,29.74
2023-12-04T16:51:40.248Z,29.93
2023-12-04T16:54:06.773Z,29.71
2023-12-04T16:56:33.235Z,29.78
2023-12-04T16:58:59.663Z,29.79
2023-12-04T17:01:26.102Z,29.92
2023-12-04T17:03:52.857Z,29.78
2023-12-04T17:06:19.400Z,30.15
2023-12-04T17:08:45.981Z,30.02
2023-12-04T17:11:12.437Z,30.17
2023-12-04T17:13:38.831Z,29.84
2023-12-04T17:16:05.302Z,30.07
2023-12-04T17:18:31.776Z,30.25
2023-12-04T17:20:59.809Z,30.20
2023-12-04T17:23:26.329Z,30.43
2023-12-04T17:25:52.753Z,30.19
2023-12-04T17:28:19.193Z,30.43
2023-12-04T17:30:45.669Z,30.21
2023-12-04T17:33:12.314Z,30.25
2023-12-04T17:35:38.790Z,30.32
2023-12-04T17:38:05.212Z,30.40
2023-12-04T17:40:32.503Z,30.23
2023-12-04T17:42:58.919Z,30.45
2023-12-04T17:45:25.497Z,30.46
2023-12-04T17:47:51.988Z,30.28
2023-12-04T17:50:18.436Z,30.31
2023-12-04T17:52:44.873Z,30.13
2023-12-04T17:55:11.300Z,30.41
2023-12-04T17:57:37.742Z,30.40
2023-12-04T18:00:04.267Z,30.33
2023-12-04T18:02:32.914Z,30.05
2023-12-04T18:04:59.526Z,30.26
2023-12-04T18:07:26.411Z,30.35
2023-12-04T18:09:52.937Z,30.42
2023-12-04T18:12:19.457Z,30.21
2023-12-04T18:14:45.931Z,30.44
2023-12-04T18:17:12.367Z,30.44
2023-12-04T18:19:38.822Z,30.36
2023-12-04T18:22:05.333Z,30.33
2023-12-04T18:24:31.789Z,30.29
2023-12-04T18:26:58.206Z,30.34
2023-12-04T18:29:24.676Z,30.27
2023-12-04T18:31:51.161Z,30.33
2023-12-04T18:34:19.284Z,30.46
2023-12-04T18:36:46.401Z,30.12
2023-12-04T18:39:12.920Z,30.40
2023-12-04T18:41:39.375Z,30.41
2023-12-04T18:44:05.800Z,30.53
2023-12-04T18:46:32.215Z,30.45
2023-12-04T18:48:58.748Z,30.35
2023-12-04T18:51:25.276Z,30.32
2023-12-04T18:53:51.741Z,30.46
2023-12-04T18:56:18.132Z,30.68
2023-12-04T18:58:44.597Z,30.71
2023-12-04T19:01:11.004Z,30.75
2023-12-04T19:03:37.632Z,30.84
2023-12-04T19:06:04.278Z,30.67
2023-12-04T19:08:30.797Z,30.88
2023-12-04T19:10:57.231Z,30.64
2023-12-04T19:13:23.687Z,30.75
2023-12-04T19:15:50.231Z,31.02
2023-12-04T19:18:16.863Z,30.88
2023-12-04T19:20:43.433Z,31.17
2023-12-04T19:23:09.878Z,30.93
2023-12-04T19:25:48.434Z,30.95
2023-12-04T19:28:16.935Z,30.95
2023-12-04T19:30:43.478Z,31.25
2023-12-04T19:33:15.303Z,31.31
2023-12-04T19:35:45.078Z,31.32
2023-12-04T19:38:11.505Z,31.15
2023-12-04T19:40:37.948Z,31.21
2023-12-04T19:43:04.401Z,31.22
2023-12-04T19:45:30.854Z,31.54
2023-12-04T19:47:57.347Z,31.25
2023-12-04T19:50:23.840Z,31.21
2023-12-04T19:52:50.262Z,31.28
2023-12-04T19:55:16.693Z,31.17
2023-12-04T19:57:43.250Z,31.23
2023-12-04T20:00:09.683Z,31.38
2023-12-04T20:02:38.945Z,31.57
2023-12-04T20:05:05.594Z,31.44
2023-12-04T20:07:32.759Z,31.50
2023-12-04T20:09:59.151Z,31.60
2023-12-04T20:12:25.625Z,31.24
2023-12-04T20:14:52.070Z,31.37
2023-12-04T20:17:18.476Z,31.45
2023-12-04T20:19:44.933Z,31.42
2023-12-04T20:22:11.444Z,31.72
2023-12-04T20:24:37.935Z,31.61
2023-12-04T20:27:04.467Z,31.41
2023-12-04T20:29:30.913Z,31.82
2023-12-04T20:31:57.301Z,31.51
2023-12-04T20:34:23.817Z,31.94
2023-12-04T20:36:50.336Z,31.58
2023-12-04T20:39:16.779Z,31.89
2023-12-04T20:41:43.265Z,31.79
2023-12-04T20:44:09.694Z,32.06
2023-12-04T20:46:36.124Z,32.19
2023-12-04T20:49:02.616Z,31.94
2023-12-04T20:51:29.118Z,32.24
2023-12-04T20:53:55.564Z,32.13
2023-12-04T20:56:22.041Z,32.49
2023-12-04T20:58:48.453Z,32.26
2023-12-04T21:01:14.879Z,32.29
2023-12-04T21:03:41.441Z,32.22
2023-12-04T21:06:08.011Z,32.18
2023-12-04T21:08:34.462Z,32.38
2023-12-04T21:11:00.897Z,32.44
2023-12-04T21:13:27.411Z,32.60
2023-12-04T21:15:53.850Z,32.50
2023-12-04T21:18:20.427Z,32.56
2023-12-04T21:20:47.012Z,32.43
2023-12-04T21:23:13.440Z,32.37
2023-12-04T21:25:39.888Z,32.60
2023-12-04T21:28:06.340Z,32.52
2023-12-04T21:30:32.771Z,32.52
2023-12-04T21:32:59.250Z,32.27
2023-12-04T21:35:25.716Z,32.50
2023-12-04T21:37:52.155Z,32.43
2023-12-04T21:40:18.593Z,32.69
2023-12-04T21:42:45.050Z,32.60
2023-12-04T21:45:11.525Z,32.62
2023-12-04T21:47:38.092Z,32.76
2023-12-04T21:50:04.518Z,32.81
2023-12-04T21:52:30.965Z,32.81
2023-12-04T21:54:57.390Z,32.72
2023-12-04T21:57:24.162Z,32.60
2023-12-04T21:59:50.593Z,32.58
2023-12-04T22:02:17.025Z,32.84
2023-12-04T22:04:43.722Z,32.82
2023-12-04T22:07:10.267Z,32.81
2023-12-04T22:09:36.724Z,32.76
2023-12-04T22:12:03.198Z,32.63
2023-12-04T22:14:29.591Z,32.85
2023-12-04T22:16:56.021Z,32.55
2023-12-04T22:19:23.352Z,32.55
2023-12-04T22:21:49.878Z,32.94
2023-12-04T22:24:16.446Z,32.87
2023-12-04T22:26:42.896Z,32.70
2023-12-04T22:29:09.297Z,32.88
2023-12-04T22:31:35.756Z,32.84
2023-12-04T22:34:02.192Z,32.95
2023-12-04T22:36:28.619Z,32.76
2023-12-04T22:38:55.580Z,32.99
2023-12-04T22:41:21.975Z,33.13
2023-12-04T22:43:48.391Z,32.93
2023-12-04T22:46:14.868Z,33.18
2023-12-04T22:48:41.411Z,33.25
2023-12-04T22:51:07.972Z,33.14
2023-12-04T22:53:34.417Z,33.38
2023-12-04T22:56:00.850Z,33.18
2023-12-04T22:58:27.314Z,33.04
2023-12-04T23:00:53.796Z,32.90
2023-12-04T23:03:20.447Z,33.22
2023-12-04T23:05:47.015Z,32.90
2023-12-04T23:08:15.172Z,33.14
2023-12-04T23:10:42.326Z,33.22
2023-12-04T23:13:08.759Z,33.32
2023-12-04T23:15:35.268Z,33.20
2023-12-04T23:18:01.761Z,33.08
2023-12-04T23:20:28.237Z,32.98
2023-12-04T23:22:54.689Z,33.34
2023-12-04T23:25:21.250Z,33.06
2023-12-04T23:27:47.725Z,32.97
2023-12-04T23:30:14.185Z,32.85
2023-12-04T23:32:40.656Z,32.60
2023-12-04T23:35:07.106Z,32.73
2023-12-04T23:37:33.533Z,32.84
2023-12-04T23:39:59.962Z,32.63
2023-12-04T23:42:26.539Z,32.77
2023-12-04T23:44:52.997Z,32.77
2023-12-04T23:47:19.441Z,32.92
2023-12-04T23:49:45.927Z,32.91
2023-12-04T23:52:12.384Z,32.63
2023-12-04T23:54:38.855Z,32.89
2023-12-04T23:57:05.247Z,33.00
2023-12-04T23:59:31.712Z,33.09
